createdAt,value
2018-01-28T00:00:53.799Z,11.03
2018-01-28T00:03:20.008Z,11.20
2018-01-28T00:05:46.923Z,9.67
2018-01-28T00:08:13.107Z,9.80
2018-01-28T00:10:39.336Z,10.33
2018-01-28T00:13:05.535Z,9.40
2018-01-28T00:15:31.715Z,9.70
2018-01-28T00:17:57.941Z,11.80
2018-01-28T00:20:24.136Z,10.37
2018-01-28T00:22:50.341Z,9.60
2018-01-28T00:25:16.544Z,8.57
2018-01-28T00:27:42.723Z,9.67
2018-01-28T00:30:08.894Z,9.50
2018-01-28T00:32:35.900Z,9.20
2018-01-28T00:35:02.277Z,9.13
2018-01-28T00:37:29.177Z,9.30
2018-01-28T00:39:55.396Z,8.30
2018-01-28T00:42:21.557Z,7.83
2018-01-28T00:44:47.736Z,10.10
2018-01-28T00:47:14.676Z,8.60
2018-01-28T00:49:40.835Z,7.63
2018-01-28T00:52:07.009Z,7.57
2018-01-28T00:54:33.200Z,7.77
2018-01-28T00:56:59.347Z,7.60
2018-01-28T00:59:25.495Z,7.87
2018-01-28T01:01:51.672Z,8.03
2018-01-28T01:04:17.821Z,7.10
2018-01-28T01:06:44.732Z,8.13
2018-01-28T01:09:10.934Z,7.50
2018-01-28T01:11:37.115Z,8.27
2018-01-28T01:14:04.767Z,7.47
2018-01-28T01:16:30.975Z,6.20
2018-01-28T01:18:57.132Z,6.47
2018-01-28T01:21:23.302Z,6.10
2018-01-28T01:23:50.223Z,5.43
2018-01-28T01:26:16.395Z,6.03
2018-01-28T01:28:42.576Z,5.40
2018-01-28T01:31:08.774Z,5.60
2018-01-28T01:33:35.012Z,5.90
2018-01-28T01:36:01.312Z,6.53
2018-01-28T01:38:28.245Z,6.03
2018-01-28T01:40:54.440Z,5.70
2018-01-28T01:43:20.611Z,5.17
2018-01-28T01:45:46.815Z,5.60
2018-01-28T01:48:12.980Z,5.43
2018-01-28T01:50:39.147Z,5.07
2018-01-28T01:53:06.062Z,5.57
2018-01-28T01:55:32.979Z,5.50
2018-01-28T01:57:59.140Z,5.20
2018-01-28T02:00:25.318Z,5.30
2018-01-28T02:02:51.491Z,5.90
2018-01-28T02:05:17.683Z,6.60
2018-01-28T02:07:43.883Z,6.43
2018-01-28T02:10:10.032Z,6.20
2018-01-28T02:12:36.201Z,7.43
2018-01-28T02:15:02.401Z,6.70
2018-01-28T02:17:29.301Z,6.80
2018-01-28T02:19:55.462Z,7.70
2018-01-28T02:22:21.682Z,7.33
2018-01-28T02:24:47.847Z,7.17
2018-01-28T02:27:14.055Z,7.90
2018-01-28T02:29:40.208Z,7.60
2018-01-28T02:32:06.375Z,8.00
2018-01-28T02:34:32.620Z,7.67
2018-01-28T02:36:59.009Z,7.90
2018-01-28T02:39:25.932Z,8.10
2018-01-28T02:41:52.152Z,9.53
2018-01-28T02:44:18.384Z,8.93
2018-01-28T02:46:44.532Z,9.20
2018-01-28T02:49:10.685Z,10.30
2018-01-28T02:51:36.920Z,10.47
2018-01-28T02:54:03.095Z,10.60
2018-01-28T02:56:29.995Z,10.80
2018-01-28T02:58:56.175Z,10.93
2018-01-28T03:01:22.376Z,11.70
2018-01-28T03:03:49.278Z,13.40
2018-01-28T03:06:15.443Z,12.77
2018-01-28T03:08:41.609Z,14.33
2018-01-28T03:11:07.779Z,13.13
2018-01-28T03:13:33.947Z,13.30
2018-01-28T03:16:00.100Z,13.43
2018-01-28T03:18:26.300Z,13.63
2018-01-28T03:20:52.470Z,14.97
2018-01-28T03:23:19.391Z,15.83
2018-01-28T03:25:45.607Z,15.40
2018-01-28T03:28:11.784Z,14.57
2018-01-28T03:30:38.725Z,13.90
2018-01-28T03:33:04.915Z,14.67
2018-01-28T03:35:31.195Z,14.40
2018-01-28T03:37:58.123Z,14.60
2018-01-28T03:40:24.302Z,13.50
2018-01-28T03:42:51.276Z,14.17
2018-01-28T03:45:17.453Z,13.23
2018-01-28T03:47:43.635Z,13.43
2018-01-28T03:50:10.628Z,13.30
2018-01-28T03:52:36.767Z,12.97
2018-01-28T03:55:03.744Z,12.37
2018-01-28T03:57:29.928Z,12.07
2018-01-28T03:59:56.105Z,11.00
2018-01-28T04:02:23.754Z,11.47
2018-01-28T04:04:51.599Z,11.17
2018-01-28T04:07:17.779Z,11.30
2018-01-28T04:09:43.955Z,9.77
2018-01-28T04:12:10.123Z,9.90
2018-01-28T04:14:36.267Z,9.57
2018-01-28T04:19:40.276Z,11.07
2018-01-28T04:22:06.445Z,11.97
2018-01-28T04:24:33.363Z,11.83
2018-01-28T04:26:59.546Z,12.10
2018-01-28T04:29:25.715Z,12.80
2018-01-28T04:31:51.875Z,13.17
2018-01-28T04:34:18.038Z,13.40
2018-01-28T04:36:46.755Z,13.07
2018-01-28T04:39:15.804Z,13.20
2018-01-28T04:41:41.947Z,13.53
2018-01-28T04:44:08.112Z,12.63
2018-01-28T04:46:34.268Z,13.50
2018-01-28T04:49:00.440Z,13.23
2018-01-28T04:51:26.596Z,11.77
2018-01-28T04:53:53.505Z,13.00
2018-01-28T04:56:19.679Z,13.40
2018-01-28T04:58:46.581Z,12.73
2018-01-28T05:01:12.752Z,12.37
2018-01-28T05:03:40.414Z,11.03
2018-01-28T05:06:06.583Z,11.80
2018-01-28T05:08:32.771Z,12.00
2018-01-28T05:10:58.959Z,13.73
2018-01-28T05:13:25.125Z,12.30
2018-01-28T05:15:51.295Z,10.77
2018-01-28T05:18:18.208Z,12.80
2018-01-28T05:20:44.357Z,12.40
2018-01-28T05:23:10.524Z,11.50
2018-01-28T05:25:36.724Z,11.60
2018-01-28T05:28:02.883Z,11.37
2018-01-28T05:30:29.781Z,12.10
2018-01-28T05:32:55.952Z,12.10
2018-01-28T05:35:22.100Z,10.83
2018-01-28T05:37:49.076Z,10.70
2018-01-28T05:40:16.192Z,10.43
2018-01-28T05:42:43.101Z,11.80
2018-01-28T05:45:09.247Z,9.80
2018-01-28T05:47:35.411Z,10.03
2018-01-28T05:50:02.347Z,11.00
2018-01-28T05:52:29.292Z,11.17
2018-01-28T05:54:55.602Z,12.40
2018-01-28T05:57:21.768Z,9.30
2018-01-28T05:59:47.955Z,11.00
2018-01-28T06:02:14.124Z,9.70
2018-01-28T06:04:40.302Z,8.80
2018-01-28T06:07:06.498Z,10.33
2018-01-28T06:09:32.692Z,10.60
2018-01-28T06:11:58.856Z,10.53
2018-01-28T06:14:25.035Z,10.40
2018-01-28T06:16:51.208Z,9.97
2018-01-28T06:19:17.595Z,10.90
2018-01-28T06:21:43.779Z,11.03
2018-01-28T06:24:09.950Z,10.10
2018-01-28T06:26:36.104Z,10.07
2018-01-28T06:29:02.284Z,10.23
2018-01-28T06:31:28.454Z,10.67
2018-01-28T06:33:55.364Z,9.50
2018-01-28T06:36:21.511Z,9.30
2018-01-28T06:38:47.755Z,8.80
2018-01-28T06:41:14.686Z,7.80
2018-01-28T06:43:40.859Z,7.97
2018-01-28T06:46:07.772Z,9.20
2018-01-28T06:48:33.960Z,8.50
2018-01-28T06:51:00.125Z,6.80
2018-01-28T06:53:26.365Z,8.10
2018-01-28T06:55:52.544Z,7.17
2018-01-28T06:58:19.451Z,7.47
2018-01-28T07:00:45.652Z,7.73
2018-01-28T07:03:11.860Z,6.10
2018-01-28T07:05:38.048Z,7.33
2018-01-28T07:08:04.268Z,7.73
2018-01-28T07:10:30.469Z,5.60
2018-01-28T07:12:56.728Z,6.30
2018-01-28T07:17:48.208Z,7.33
2018-01-28T07:20:14.424Z,6.20
2018-01-28T07:22:40.608Z,5.57
2018-01-28T07:25:07.584Z,6.67
2018-01-28T07:27:33.755Z,5.37
2018-01-28T07:29:59.940Z,6.80
2018-01-28T07:32:26.119Z,6.80
2018-01-28T07:34:53.072Z,6.93
2018-01-28T07:37:19.255Z,8.77
2018-01-28T07:39:45.510Z,7.00
2018-01-28T07:42:12.610Z,6.20
2018-01-28T07:44:39.552Z,5.23
2018-01-28T07:47:05.775Z,5.40
2018-01-28T07:49:32.740Z,6.57
2018-01-28T07:51:59.685Z,5.40
2018-01-28T07:54:25.884Z,6.97
2018-01-28T07:56:52.078Z,7.10
2018-01-28T07:59:18.275Z,8.00
2018-01-28T08:01:44.486Z,7.53
2018-01-28T08:04:10.676Z,7.90
2018-01-28T08:06:36.892Z,6.87
2018-01-28T08:09:03.075Z,5.60
2018-01-28T08:11:34.139Z,7.20
2018-01-28T08:14:00.345Z,8.30
2018-01-28T08:16:26.573Z,6.93
2018-01-28T08:18:52.770Z,7.40
2018-01-28T08:21:18.949Z,8.30
2018-01-28T08:23:46.026Z,8.10
2018-01-28T08:26:12.235Z,8.13
2018-01-28T08:28:50.400Z,7.87
2018-01-28T08:31:17.376Z,7.47
2018-01-28T08:33:44.330Z,9.60
2018-01-28T08:36:11.275Z,6.90
2018-01-28T08:38:38.206Z,7.30
2018-01-28T08:41:05.427Z,7.50
2018-01-28T08:43:31.819Z,6.90
2018-01-28T08:45:57.974Z,8.50
2018-01-28T08:48:24.187Z,7.23
2018-01-28T08:50:51.136Z,5.93
2018-01-28T08:53:18.060Z,6.70
2018-01-28T08:55:44.256Z,6.30
2018-01-28T08:58:10.491Z,6.90
2018-01-28T09:00:36.707Z,7.10
2018-01-28T09:03:02.887Z,6.57
2018-01-28T09:05:29.082Z,5.60
2018-01-28T09:07:55.292Z,7.17
2018-01-28T09:10:22.220Z,6.57
2018-01-28T09:12:48.471Z,6.07
2018-01-28T09:15:15.415Z,6.20
2018-01-28T09:17:43.076Z,6.67
2018-01-28T09:20:09.272Z,7.43
2018-01-28T09:22:35.440Z,6.10
2018-01-28T09:25:01.619Z,6.00
2018-01-28T09:27:27.816Z,6.70
2018-01-28T09:29:54.072Z,6.87
2018-01-28T09:32:20.285Z,6.43
2018-01-28T09:34:47.952Z,6.17
2018-01-28T09:37:14.117Z,5.77
2018-01-28T09:39:40.312Z,7.57
2018-01-28T09:42:06.624Z,7.37
2018-01-28T09:44:32.998Z,6.60
2018-01-28T09:46:59.937Z,6.13
2018-01-28T09:49:26.115Z,5.73
2018-01-28T09:51:53.043Z,6.17
2018-01-28T09:54:19.984Z,6.17
2018-01-28T09:56:46.204Z,9.27
2018-01-28T09:59:12.381Z,5.57
2018-01-28T10:01:38.575Z,7.40
2018-01-28T10:04:04.760Z,6.40
2018-01-28T10:06:30.968Z,5.70
2018-01-28T10:08:57.880Z,7.40
2018-01-28T10:11:24.071Z,6.47
2018-01-28T10:13:50.252Z,6.57
2018-01-28T10:16:16.433Z,15.17
2018-01-28T10:18:42.645Z,5.57
2018-01-28T10:21:08.840Z,6.23
2018-01-28T10:23:35.064Z,6.50
2018-01-28T10:26:01.274Z,6.20
2018-01-28T10:28:27.445Z,5.17
2018-01-28T10:30:53.643Z,6.30
2018-01-28T10:33:19.889Z,5.47
2018-01-28T10:35:46.069Z,5.80
2018-01-28T10:38:12.300Z,6.37
2018-01-28T10:40:38.493Z,5.27
2018-01-28T10:43:04.924Z,7.57
2018-01-28T10:45:32.021Z,6.17
2018-01-28T10:47:58.216Z,7.57
2018-01-28T10:50:24.496Z,6.37
2018-01-28T10:52:51.662Z,7.53
2018-01-28T10:55:18.470Z,6.63
2018-01-28T10:57:44.756Z,7.90
2018-01-28T11:00:12.112Z,6.70
2018-01-28T11:02:38.684Z,5.93
2018-01-28T11:05:06.416Z,6.97
2018-01-28T11:07:32.847Z,5.63
2018-01-28T11:10:00.224Z,7.53
2018-01-28T11:12:27.888Z,10.90
2018-01-28T11:14:55.546Z,7.40
2018-01-28T11:17:22.502Z,7.17
2018-01-28T11:19:50.066Z,6.53
2018-01-28T11:22:17.533Z,6.40
2018-01-28T11:24:44.655Z,5.93
2018-01-28T11:27:12.352Z,7.90
2018-01-28T11:29:39.783Z,7.13
2018-01-28T11:32:07.277Z,6.97
2018-01-28T11:34:33.551Z,5.83
2018-01-28T11:37:00.054Z,7.53
2018-01-28T11:39:26.476Z,6.60
2018-01-28T11:41:52.715Z,6.37
2018-01-28T11:44:19.872Z,6.87
2018-01-28T11:46:46.435Z,14.67
2018-01-28T11:49:13.396Z,10.90
2018-01-28T11:51:39.595Z,8.00
2018-01-28T11:54:05.821Z,6.57
2018-01-28T11:56:32.024Z,6.30
2018-01-28T11:58:58.267Z,6.87
2018-01-28T12:01:24.476Z,6.00
2018-01-28T12:03:50.651Z,7.17
2018-01-28T12:06:16.896Z,6.97
2018-01-28T12:08:43.158Z,6.63
2018-01-28T12:11:09.503Z,7.20
2018-01-28T12:13:35.778Z,8.53
2018-01-28T12:16:02.012Z,6.93
2018-01-28T12:18:28.345Z,6.63
2018-01-28T12:20:55.379Z,5.90
2018-01-28T12:23:21.665Z,7.30
2018-01-28T12:25:48.146Z,7.17
2018-01-28T12:28:14.626Z,6.90
2018-01-28T12:30:41.127Z,6.40
2018-01-28T12:33:08.385Z,7.00
2018-01-28T12:35:34.730Z,7.80
2018-01-28T12:38:01.851Z,6.00
2018-01-28T12:40:28.355Z,7.20
2018-01-28T12:42:55.390Z,6.57
2018-01-28T12:45:21.993Z,7.37
2018-01-28T12:47:49.387Z,6.53
2018-01-28T12:50:17.254Z,7.07
2018-01-28T12:52:43.759Z,7.33
2018-01-28T12:55:10.833Z,7.10
2018-01-28T12:57:37.282Z,8.57
2018-01-28T13:00:03.596Z,6.63
2018-01-28T13:02:30.674Z,7.87
2018-01-28T13:04:57.846Z,7.13
2018-01-28T13:07:25.008Z,8.10
2018-01-28T13:09:51.299Z,7.10
2018-01-28T13:12:17.653Z,6.87
2018-01-28T13:14:43.985Z,7.70
2018-01-28T13:17:10.277Z,8.27
2018-01-28T13:19:36.517Z,5.97
2018-01-28T13:22:02.758Z,7.90
2018-01-28T13:24:28.965Z,7.90
2018-01-28T13:26:55.191Z,8.53
2018-01-28T13:29:21.433Z,7.97
2018-01-28T13:31:47.606Z,6.73
2018-01-28T13:34:14.551Z,10.03
2018-01-28T13:36:40.760Z,8.93
2018-01-28T13:39:06.970Z,7.13
2018-01-28T13:41:33.141Z,7.47
2018-01-28T13:43:59.367Z,6.40
2018-01-28T13:46:25.669Z,7.47
2018-01-28T13:48:51.907Z,8.57
2018-01-28T13:51:18.144Z,7.43
2018-01-28T13:53:44.336Z,8.17
2018-01-28T13:56:11.276Z,7.93
2018-01-28T13:58:37.473Z,7.17
2018-01-28T14:01:03.670Z,7.80
2018-01-28T14:03:29.871Z,8.47
2018-01-28T14:05:56.055Z,8.00
2018-01-28T14:08:22.230Z,7.03
2018-01-28T14:10:48.422Z,8.57
2018-01-28T14:13:14.598Z,7.30
2018-01-28T14:15:40.790Z,7.00
2018-01-28T14:18:07.003Z,8.13
2018-01-28T14:20:33.212Z,7.00
2018-01-28T14:22:59.384Z,9.47
2018-01-28T14:25:25.575Z,8.10
2018-01-28T14:27:51.800Z,8.53
2018-01-28T14:30:17.999Z,8.17
2018-01-28T14:32:44.188Z,6.60
2018-01-28T14:35:11.167Z,6.47
2018-01-28T14:37:38.084Z,6.73
2018-01-28T14:40:05.040Z,9.13
2018-01-28T14:42:31.235Z,8.07
2018-01-28T14:44:57.412Z,7.13
2018-01-28T14:47:23.672Z,8.80
2018-01-28T14:49:51.414Z,7.50
2018-01-28T14:52:19.071Z,9.53
2018-01-28T14:54:45.260Z,7.57
2018-01-28T14:57:11.505Z,8.37
2018-01-28T14:59:37.685Z,6.57
2018-01-28T15:02:03.868Z,6.97
2018-01-28T15:04:30.068Z,6.17
2018-01-28T15:06:56.977Z,7.37
2018-01-28T15:09:23.168Z,7.33
2018-01-28T15:11:49.376Z,7.07
2018-01-28T15:14:26.646Z,6.20
2018-01-28T15:16:53.582Z,6.90
2018-01-28T15:19:19.803Z,6.57
2018-01-28T15:21:45.975Z,7.03
2018-01-28T15:24:12.209Z,7.80
2018-01-28T15:26:39.151Z,6.83
2018-01-28T15:29:05.319Z,6.53
2018-01-28T15:31:31.539Z,7.50
2018-01-28T15:33:58.294Z,6.53
2018-01-28T15:36:24.496Z,6.30
2018-01-28T15:38:50.699Z,5.53
2018-01-28T15:41:16.895Z,5.97
2018-01-28T15:43:43.822Z,6.83
2018-01-28T15:46:10.009Z,7.30
2018-01-28T15:48:36.412Z,6.17
2018-01-28T15:51:02.852Z,7.37
2018-01-28T15:53:29.804Z,7.47
2018-01-28T15:55:56.056Z,7.27
2018-01-28T15:58:22.331Z,6.20
2018-01-28T16:00:49.295Z,6.57
2018-01-28T16:03:15.472Z,6.83
2018-01-28T16:05:42.379Z,7.50
2018-01-28T16:08:08.593Z,6.10
2018-01-28T16:10:36.202Z,7.20
2018-01-28T16:13:06.011Z,7.93
2018-01-28T16:15:32.736Z,8.37
2018-01-28T16:17:58.917Z,8.47
2018-01-28T16:20:25.103Z,9.03
2018-01-28T16:22:52.546Z,7.37
2018-01-28T16:25:19.241Z,8.23
2018-01-28T16:27:46.155Z,7.87
2018-01-28T16:30:12.356Z,9.07
2018-01-28T16:32:38.523Z,8.10
2018-01-28T16:35:04.700Z,7.70
2018-01-28T16:37:30.916Z,7.77
2018-01-28T16:39:57.112Z,7.60
2018-01-28T16:42:23.272Z,8.30
2018-01-28T16:44:49.484Z,7.30
2018-01-28T16:47:15.903Z,7.20
2018-01-28T16:49:42.265Z,7.60
2018-01-28T16:52:08.687Z,9.07
2018-01-28T16:54:34.880Z,6.83
2018-01-28T16:57:01.098Z,8.17
2018-01-28T16:59:27.296Z,9.00
2018-01-28T17:01:53.491Z,8.70
2018-01-28T17:04:20.418Z,8.67
2018-01-28T17:06:47.400Z,8.80
2018-01-28T17:09:13.612Z,11.30
2018-01-28T17:11:40.538Z,10.03
2018-01-28T17:14:06.735Z,11.73
2018-01-28T17:16:32.955Z,12.40
2018-01-28T17:18:59.134Z,11.90
2018-01-28T17:21:25.362Z,10.90
2018-01-28T17:23:51.523Z,13.30
2018-01-28T17:26:18.480Z,11.63
2018-01-28T17:28:44.691Z,11.60
2018-01-28T17:31:10.871Z,10.63
2018-01-28T17:33:37.036Z,10.70
2018-01-28T17:36:03.254Z,11.87
2018-01-28T17:38:29.464Z,12.57
2018-01-28T17:40:56.376Z,10.97
2018-01-28T17:43:23.360Z,11.70
2018-01-28T17:45:50.266Z,13.27
2018-01-28T17:48:16.422Z,12.00
2018-01-28T17:50:42.695Z,10.50
2018-01-28T17:53:09.123Z,11.13
2018-01-28T17:55:36.046Z,11.40
2018-01-28T17:58:02.988Z,9.17
2018-01-28T18:00:32.225Z,10.57
2018-01-28T18:03:01.027Z,10.20
2018-01-28T18:05:28.669Z,8.43
2018-01-28T18:07:55.193Z,8.53
2018-01-28T18:10:22.104Z,7.40
2018-01-28T18:12:48.313Z,8.20
2018-01-28T18:15:14.509Z,8.13
2018-01-28T18:17:40.682Z,6.30
2018-01-28T18:20:06.925Z,5.80
2018-01-28T18:22:33.093Z,6.43
2018-01-28T18:25:00.129Z,5.30
2018-01-28T18:27:26.307Z,6.00
2018-01-28T18:29:53.240Z,4.23
2018-01-28T18:32:19.401Z,4.60
2018-01-28T18:34:46.332Z,5.67
2018-01-28T18:37:13.263Z,5.33
2018-01-28T18:39:39.441Z,4.90
2018-01-28T18:42:06.379Z,3.93
2018-01-28T18:44:32.576Z,3.83
2018-01-28T18:46:58.760Z,3.40
2018-01-28T18:49:24.993Z,3.97
2018-01-28T18:51:51.194Z,3.40
2018-01-28T18:54:18.143Z,3.73
2018-01-28T18:56:44.342Z,4.30
2018-01-28T18:59:10.532Z,4.83
2018-01-28T19:01:37.464Z,4.50
2018-01-28T19:04:03.639Z,4.40
2018-01-28T19:06:30.552Z,3.40
2018-01-28T19:08:57.820Z,4.87
2018-01-28T19:11:24.000Z,4.10
2018-01-28T19:13:50.179Z,3.50
2018-01-28T19:16:17.832Z,3.53
2018-01-28T19:18:44.022Z,3.90
2018-01-28T19:21:10.219Z,2.70
2018-01-28T19:23:37.875Z,3.40
2018-01-28T19:26:04.069Z,2.73
2018-01-28T19:28:30.259Z,7.93
2018-01-28T19:30:56.428Z,3.43
2018-01-28T19:33:22.646Z,2.70
2018-01-28T19:35:49.595Z,2.57
2018-01-28T19:38:15.776Z,2.30
2018-01-28T19:40:41.959Z,2.83
2018-01-28T19:43:08.875Z,2.90
2018-01-28T19:45:35.040Z,3.30
2018-01-28T19:48:01.984Z,2.67
2018-01-28T19:50:28.930Z,2.80
2018-01-28T19:52:55.919Z,2.90
2018-01-28T19:55:22.369Z,2.30
2018-01-28T19:57:48.560Z,2.60
2018-01-28T20:00:15.471Z,2.27
2018-01-28T20:02:41.674Z,2.03
2018-01-28T20:05:07.835Z,2.37
2018-01-28T20:07:33.987Z,2.17
2018-01-28T20:10:00.196Z,2.20
2018-01-28T20:12:26.372Z,2.53
2018-01-28T20:14:53.303Z,2.37
2018-01-28T20:17:19.506Z,3.07
2018-01-28T20:19:45.696Z,2.50
2018-01-28T20:22:12.610Z,2.13
2018-01-28T20:24:38.808Z,2.20
2018-01-28T20:27:04.993Z,1.90
2018-01-28T20:29:31.172Z,2.10
2018-01-28T20:31:57.388Z,4.80
2018-01-28T20:34:24.290Z,2.30
2018-01-28T20:36:50.471Z,2.23
2018-01-28T20:39:17.410Z,2.60
2018-01-28T20:41:44.339Z,2.00
2018-01-28T20:44:11.268Z,2.03
2018-01-28T20:46:37.468Z,3.27
2018-01-28T20:49:04.372Z,2.40
2018-01-28T20:51:30.564Z,2.87
2018-01-28T20:53:56.835Z,2.30
2018-01-28T20:56:23.783Z,1.60
2018-01-28T20:58:49.972Z,2.40
2018-01-28T21:01:16.146Z,2.23
2018-01-28T21:03:43.096Z,2.77
2018-01-28T21:06:09.268Z,2.03
2018-01-28T21:08:36.405Z,2.00
2018-01-28T21:11:02.572Z,2.37
2018-01-28T21:13:28.765Z,2.23
2018-01-28T21:15:54.964Z,2.53
2018-01-28T21:18:21.124Z,2.50
2018-01-28T21:20:47.292Z,2.70
2018-01-28T21:23:14.239Z,1.90
2018-01-28T21:25:41.157Z,2.60
2018-01-28T21:28:07.329Z,2.13
2018-01-28T21:30:34.260Z,2.27
2018-01-28T21:33:00.480Z,2.20
2018-01-28T21:35:26.654Z,2.80
2018-01-28T21:37:53.579Z,3.30
2018-01-28T21:40:19.745Z,2.80
2018-01-28T21:42:46.654Z,4.77
2018-01-28T21:45:13.608Z,2.90
2018-01-28T21:47:39.787Z,3.83
2018-01-28T21:50:05.965Z,3.17
2018-01-28T21:52:32.171Z,3.63
2018-01-28T21:54:58.792Z,3.60
2018-01-28T21:57:25.195Z,3.27
2018-01-28T21:59:51.400Z,3.47
2018-01-28T22:02:17.587Z,3.50
2018-01-28T22:04:44.505Z,3.10
2018-01-28T22:07:10.684Z,3.53
2018-01-28T22:09:36.996Z,3.50
2018-01-28T22:12:03.960Z,3.77
2018-01-28T22:14:30.159Z,4.10
2018-01-28T22:16:56.361Z,3.63
2018-01-28T22:19:23.271Z,3.77
2018-01-28T22:21:50.224Z,3.50
2018-01-28T22:24:17.149Z,3.80
2018-01-28T22:26:44.087Z,3.53
2018-01-28T22:29:10.328Z,3.50
2018-01-28T22:31:36.556Z,4.10
2018-01-28T22:34:02.720Z,3.30
2018-01-28T22:36:29.837Z,4.63
2018-01-28T22:38:56.025Z,3.53
2018-01-28T22:41:22.223Z,3.83
2018-01-28T22:43:48.424Z,3.77
2018-01-28T22:46:14.615Z,3.63
2018-01-28T22:48:41.543Z,4.00
2018-01-28T22:51:08.488Z,3.67
2018-01-28T22:53:34.664Z,4.33
2018-01-28T22:56:00.893Z,3.90
2018-01-28T22:58:27.441Z,3.27
2018-01-28T23:00:53.623Z,7.17
2018-01-28T23:03:19.869Z,2.90
2018-01-28T23:05:46.063Z,3.70
2018-01-28T23:08:12.252Z,3.50
2018-01-28T23:10:39.192Z,3.20
2018-01-28T23:13:05.412Z,3.70
2018-01-28T23:15:31.614Z,3.43
2018-01-28T23:17:57.787Z,4.00
2018-01-28T23:20:24.021Z,4.20
2018-01-28T23:22:50.198Z,3.87
2018-01-28T23:25:17.137Z,4.47
2018-01-28T23:27:44.100Z,4.87
2018-01-28T23:30:10.295Z,5.90
2018-01-28T23:32:37.944Z,5.67
2018-01-28T23:35:04.136Z,5.03
2018-01-28T23:37:31.056Z,4.57
2018-01-28T23:39:57.981Z,5.57
2018-01-28T23:42:24.151Z,5.77
2018-01-28T23:44:51.055Z,6.77
2018-01-28T23:47:17.224Z,6.40
2018-01-28T23:49:44.170Z,6.30
2018-01-28T23:52:10.361Z,6.93
2018-01-28T23:54:37.315Z,7.40
2018-01-28T23:57:03.572Z,7.30
2018-01-28T23:59:30.528Z,8.13
